Mevagissey, United Kingdom
Current Conditions -  °F | °C
As of 8:20 PM on Friday 21 Nov 2014 (Local Time) from EGHQ Reporting Station
Light Rain Light Rain  
Wind Chill: 55°   Ceiling: 400
Heat Index: 55°   Visibility: 4mi
Dew Point: 54°   Wind: 23mph
Humidity: 94%   Direction: 160°SSE
Pressure: 29.77"   Gusts: NA
Location:  50.27°N, 4.79°W
Report Text: EGHQ 212020Z 16020KT 6000 -RA BKN004 13/12 Q1008
Loading
Personal Weather Stations






























Interactive Weather Map New forecast layout! Learn more

10-Day Weather Forecast

Advertisements
Track Severe Weather on mobile